createdAt,value
2018-02-18T00:00:33.972Z,46.40
2018-02-18T00:03:01.487Z,46.20
2018-02-18T00:05:28.992Z,46.80
2018-02-18T00:07:56.515Z,46.40
2018-02-18T00:10:24.035Z,46.90
2018-02-18T00:12:51.553Z,46.60
2018-02-18T00:15:19.835Z,46.20
2018-02-18T00:17:48.111Z,46.40
2018-02-18T00:20:16.391Z,46.30
2018-02-18T00:22:44.684Z,46.60
2018-02-18T00:25:12.207Z,46.60
2018-02-18T00:27:39.731Z,46.80
2018-02-18T00:30:07.234Z,46.50
2018-02-18T00:32:35.531Z,46.40
2018-02-18T00:35:03.803Z,46.50
2018-02-18T00:37:32.109Z,46.50
2018-02-18T00:39:59.622Z,46.40
2018-02-18T00:42:27.146Z,46.20
2018-02-18T00:44:54.677Z,46.50
2018-02-18T00:47:22.189Z,46.70
2018-02-18T00:49:49.711Z,46.80
2018-02-18T00:52:17.223Z,46.30
2018-02-18T00:54:44.759Z,45.80
2018-02-18T00:57:12.267Z,45.90
2018-02-18T00:59:39.796Z,47.00
2018-02-18T01:02:07.307Z,46.60
2018-02-18T01:04:34.834Z,47.10
2018-02-18T01:07:03.107Z,47.20
2018-02-18T01:09:31.397Z,47.30
2018-02-18T01:11:59.676Z,46.80
2018-02-18T01:14:27.973Z,46.70
2018-02-18T01:16:55.483Z,46.80
2018-02-18T01:19:23.011Z,46.70
2018-02-18T01:21:50.528Z,47.20
2018-02-18T01:24:18.811Z,46.90
2018-02-18T01:26:46.320Z,47.00
2018-02-18T01:29:13.836Z,47.10
2018-02-18T01:31:41.352Z,47.00
2018-02-18T01:34:08.874Z,46.70
2018-02-18T01:36:36.404Z,46.90
2018-02-18T01:39:04.722Z,47.30
2018-02-18T01:41:32.248Z,47.20
2018-02-18T01:44:00.520Z,47.40
2018-02-18T01:46:28.804Z,47.10
2018-02-18T01:48:57.091Z,46.50
2018-02-18T01:51:24.635Z,46.90
2018-02-18T01:53:52.911Z,47.40
2018-02-18T01:56:21.211Z,46.50
2018-02-18T01:58:48.724Z,46.20
2018-02-18T02:01:16.269Z,47.50
2018-02-18T02:03:43.780Z,47.10
2018-02-18T02:06:11.288Z,47.60
2018-02-18T02:08:38.821Z,46.40
2018-02-18T02:11:06.328Z,46.90
2018-02-18T02:13:33.850Z,46.80
2018-02-18T02:16:01.356Z,46.80
2018-02-18T02:18:29.652Z,47.00
2018-02-18T02:20:57.918Z,47.40
2018-02-18T02:23:26.203Z,45.70
2018-02-18T02:25:54.481Z,46.60
2018-02-18T02:28:22.771Z,45.90
2018-02-18T02:30:50.276Z,46.10
2018-02-18T02:33:17.816Z,46.50
2018-02-18T02:35:45.325Z,46.60
2018-02-18T02:38:13.604Z,46.70
2018-02-18T02:40:41.891Z,46.80
2018-02-18T02:43:10.162Z,47.40
2018-02-18T02:45:38.454Z,47.40
2018-02-18T02:48:05.960Z,47.50
2018-02-18T02:50:33.484Z,47.10
2018-02-18T02:53:00.992Z,47.40
2018-02-18T02:55:28.524Z,47.50
2018-02-18T02:57:56.036Z,47.20
2018-02-18T03:00:24.330Z,47.30
2018-02-18T03:02:51.839Z,47.60
2018-02-18T03:05:19.384Z,47.80
2018-02-18T03:07:46.892Z,47.30
2018-02-18T03:10:15.173Z,47.10
2018-02-18T03:12:43.468Z,47.50
2018-02-18T03:15:10.986Z,47.70
2018-02-18T03:17:38.495Z,47.30
2018-02-18T03:20:06.011Z,47.40
2018-02-18T03:22:34.300Z,47.00
2018-02-18T03:25:02.584Z,47.00
2018-02-18T03:27:30.884Z,47.40
2018-02-18T03:29:58.379Z,47.50
2018-02-18T03:32:25.921Z,47.30
2018-02-18T03:34:54.196Z,47.30
2018-02-18T03:37:21.699Z,47.40
2018-02-18T03:39:49.222Z,47.50
2018-02-18T03:42:16.755Z,47.30
2018-02-18T03:44:44.280Z,47.40
2018-02-18T03:47:11.794Z,47.50
2018-02-18T03:49:39.325Z,47.20
2018-02-18T03:52:07.600Z,47.60
2018-02-18T03:54:35.884Z,46.40
2018-02-18T03:57:04.164Z,46.40
2018-02-18T03:59:32.451Z,46.50
2018-02-18T04:01:59.965Z,46.70
2018-02-18T04:04:27.495Z,46.90
2018-02-18T04:06:55.007Z,47.00
2018-02-18T04:09:23.295Z,46.60
2018-02-18T04:11:51.571Z,47.00
2018-02-18T04:14:19.853Z,47.40
2018-02-18T04:16:48.139Z,47.70
2018-02-18T04:19:15.648Z,47.60
2018-02-18T04:21:43.171Z,47.40
2018-02-18T04:24:10.684Z,47.20
2018-02-18T04:26:38.224Z,47.60
2018-02-18T04:29:05.740Z,47.50
2018-02-18T04:31:33.276Z,46.90
2018-02-18T04:34:01.552Z,47.60
2018-02-18T04:36:29.848Z,47.60
2018-02-18T04:38:57.364Z,47.50
2018-02-18T04:41:24.932Z,47.70
2018-02-18T04:43:52.450Z,47.20
2018-02-18T04:46:19.971Z,47.50
2018-02-18T04:48:48.260Z,47.90
2018-02-18T04:51:16.531Z,47.40
2018-02-18T04:53:44.917Z,47.50
2018-02-18T04:56:13.208Z,47.50
2018-02-18T04:58:40.743Z,47.20
2018-02-18T05:01:09.039Z,47.80
2018-02-18T05:03:37.334Z,47.40
2018-02-18T05:06:04.872Z,47.40
2018-02-18T05:08:33.158Z,47.70
2018-02-18T05:11:00.679Z,47.90
2018-02-18T05:13:28.264Z,47.50
2018-02-18T05:15:56.572Z,47.30
2018-02-18T05:18:24.141Z,47.30
2018-02-18T05:20:51.667Z,48.20
2018-02-18T05:23:19.943Z,47.80
2018-02-18T05:25:48.258Z,48.30
2018-02-18T05:28:15.778Z,48.10
2018-02-18T05:30:44.072Z,47.90
2018-02-18T05:33:11.587Z,48.30
2018-02-18T05:35:39.216Z,48.10
2018-02-18T05:38:06.734Z,47.90
2018-02-18T05:40:35.034Z,48.50
2018-02-18T05:43:02.569Z,48.40
2018-02-18T05:45:30.865Z,47.90
2018-02-18T05:47:59.182Z,47.70
2018-02-18T05:50:26.732Z,48.00
2018-02-18T05:52:54.332Z,48.30
2018-02-18T05:55:21.905Z,48.40
2018-02-18T05:57:50.187Z,48.40
2018-02-18T06:00:18.464Z,48.50
2018-02-18T06:02:46.764Z,48.70
2018-02-18T06:05:14.307Z,48.80
2018-02-18T06:07:41.854Z,48.80
2018-02-18T06:10:09.364Z,48.00
2018-02-18T06:12:36.891Z,48.40
2018-02-18T06:15:05.194Z,48.30
2018-02-18T06:17:32.764Z,48.30
2018-02-18T06:20:00.325Z,47.60
2018-02-18T06:22:27.851Z,48.20
2018-02-18T06:24:56.128Z,48.10
2018-02-18T06:27:24.489Z,47.90
2018-02-18T06:29:52.000Z,48.20
2018-02-18T06:32:19.536Z,48.00
2018-02-18T06:34:47.838Z,47.50
2018-02-18T06:37:15.360Z,47.20
2018-02-18T06:39:43.676Z,47.40
2018-02-18T06:42:11.195Z,47.30
2018-02-18T06:44:39.489Z,47.60
2018-02-18T06:47:07.040Z,47.80
2018-02-18T06:49:35.324Z,47.50
2018-02-18T06:52:03.600Z,47.30
2018-02-18T06:54:31.925Z,47.50
2018-02-18T06:56:59.440Z,47.70
2018-02-18T06:59:26.981Z,47.70
2018-02-18T07:01:54.508Z,47.80
2018-02-18T07:04:22.047Z,47.80
2018-02-18T07:06:50.338Z,47.70
2018-02-18T07:09:17.870Z,48.20
2018-02-18T07:11:45.399Z,47.10
2018-02-18T07:14:12.940Z,47.20
2018-02-18T07:16:40.533Z,47.80
2018-02-18T07:19:08.071Z,47.40
2018-02-18T07:21:35.624Z,47.00
2018-02-18T07:24:03.136Z,46.90
2018-02-18T07:26:31.456Z,47.10
2018-02-18T07:28:58.973Z,47.50
2018-02-18T07:31:27.304Z,47.30
2018-02-18T07:33:54.840Z,47.50
2018-02-18T07:36:22.399Z,46.90
2018-02-18T07:38:49.948Z,46.60
2018-02-18T07:41:18.270Z,47.70
2018-02-18T07:43:45.815Z,47.90
2018-02-18T07:46:13.355Z,47.00
2018-02-18T07:48:40.904Z,46.80
2018-02-18T07:51:09.210Z,47.20
2018-02-18T07:53:36.753Z,47.40
2018-02-18T07:56:04.272Z,47.60
2018-02-18T07:58:31.803Z,47.20
2018-02-18T08:00:59.323Z,47.90
2018-02-18T08:03:27.635Z,47.00
2018-02-18T08:05:55.212Z,47.00
2018-02-18T08:08:22.744Z,47.40
2018-02-18T08:10:50.295Z,47.00
2018-02-18T08:13:17.838Z,47.30
2018-02-18T08:15:46.140Z,47.20
2018-02-18T08:18:13.675Z,47.50
2018-02-18T08:20:41.964Z,47.30
2018-02-18T08:23:09.493Z,47.10
2018-02-18T08:25:37.036Z,46.70
2018-02-18T08:28:04.554Z,46.30
2018-02-18T08:30:32.108Z,46.40
2018-02-18T08:32:59.656Z,46.60
2018-02-18T08:35:27.999Z,45.90
2018-02-18T08:37:55.525Z,46.00
2018-02-18T08:40:23.091Z,45.50
2018-02-18T08:42:50.608Z,45.00
2018-02-18T08:45:18.932Z,45.00
2018-02-18T08:47:46.472Z,45.20
2018-02-18T08:50:13.987Z,44.20
2018-02-18T08:52:41.536Z,43.40
2018-02-18T08:55:09.048Z,44.60
2018-02-18T08:57:37.355Z,44.30
2018-02-18T09:00:04.868Z,44.30
2018-02-18T09:02:33.231Z,44.00
2018-02-18T09:05:00.734Z,44.00
2018-02-18T09:07:28.292Z,42.80
2018-02-18T09:09:55.804Z,42.70
2018-02-18T09:12:23.380Z,42.90
2018-02-18T09:14:51.707Z,42.10
2018-02-18T09:17:19.299Z,42.40
2018-02-18T09:19:46.840Z,42.30
2018-02-18T09:22:14.365Z,42.30
2018-02-18T09:24:41.897Z,42.00
2018-02-18T09:27:09.410Z,41.60
2018-02-18T09:29:36.956Z,41.60
2018-02-18T09:32:04.556Z,41.90
2018-02-18T09:34:32.117Z,42.10
2018-02-18T09:36:59.650Z,40.90
2018-02-18T09:39:27.188Z,41.20
2018-02-18T09:41:55.468Z,41.40
2018-02-18T09:44:23.033Z,41.50
2018-02-18T09:46:51.346Z,42.00
2018-02-18T09:49:18.875Z,42.00
2018-02-18T09:51:46.412Z,41.50
2018-02-18T09:54:13.917Z,41.30
2018-02-18T09:56:41.458Z,41.50
2018-02-18T09:59:09.728Z,40.90
2018-02-18T10:01:37.283Z,41.10
2018-02-18T10:04:05.607Z,42.00
2018-02-18T10:06:33.170Z,42.20
2018-02-18T10:09:00.696Z,41.60
2018-02-18T10:11:28.249Z,41.40
2018-02-18T10:13:55.811Z,41.80
2018-02-18T10:16:24.122Z,41.50
2018-02-18T10:18:51.624Z,41.50
2018-02-18T10:21:19.950Z,42.20
2018-02-18T10:23:47.475Z,42.00
2018-02-18T10:26:15.771Z,41.10
2018-02-18T10:28:43.299Z,41.00
2018-02-18T10:31:10.823Z,41.30
2018-02-18T10:33:38.370Z,41.50
2018-02-18T10:36:05.877Z,41.60
2018-02-18T10:38:33.447Z,41.00
2018-02-18T10:41:01.763Z,41.30
2018-02-18T10:43:29.341Z,41.40
2018-02-18T10:45:56.873Z,41.20
2018-02-18T10:48:24.434Z,41.70
2018-02-18T10:50:51.976Z,41.60
2018-02-18T10:53:20.267Z,40.90
2018-02-18T10:55:47.784Z,40.90
2018-02-18T10:58:15.340Z,41.30
2018-02-18T11:00:42.868Z,41.30
2018-02-18T11:03:10.434Z,40.50
2018-02-18T11:05:37.948Z,40.30
2018-02-18T11:08:06.277Z,40.40
2018-02-18T11:10:33.808Z,40.30
2018-02-18T11:13:01.312Z,39.70
2018-02-18T11:15:28.874Z,39.30
2018-02-18T11:17:56.408Z,39.90
2018-02-18T11:20:23.957Z,39.80
2018-02-18T11:22:51.473Z,40.00
2018-02-18T11:25:19.020Z,39.70
2018-02-18T11:27:46.550Z,40.60
2018-02-18T11:30:14.076Z,39.10
2018-02-18T11:32:41.612Z,38.90
2018-02-18T11:35:09.148Z,38.90
2018-02-18T11:37:36.702Z,38.90
2018-02-18T11:40:04.223Z,38.50
2018-02-18T11:42:32.520Z,37.90
2018-02-18T11:45:00.065Z,38.10
2018-02-18T11:47:27.592Z,37.30
2018-02-18T11:49:55.139Z,38.00
2018-02-18T11:52:22.667Z,38.10
2018-02-18T11:54:50.240Z,38.40
2018-02-18T11:57:17.755Z,38.10
2018-02-18T11:59:46.043Z,38.50
2018-02-18T12:02:14.346Z,38.30
2018-02-18T12:04:41.866Z,38.30
2018-02-18T12:07:10.188Z,28.90
2018-02-18T12:09:37.716Z,28.80
2018-02-18T12:12:06.031Z,32.90
2018-02-18T12:14:33.548Z,32.90
2018-02-18T12:17:01.844Z,34.10
2018-02-18T12:19:29.375Z,34.10
2018-02-18T12:21:56.899Z,34.50
2018-02-18T12:24:24.420Z,35.80
2018-02-18T12:26:51.964Z,35.80
2018-02-18T12:29:20.248Z,35.70
2018-02-18T12:31:48.595Z,35.90
2018-02-18T12:34:16.161Z,35.60
2018-02-18T12:36:43.679Z,35.80
2018-02-18T12:39:11.223Z,35.90
2018-02-18T12:41:40.342Z,36.20
2018-02-18T12:44:07.869Z,37.00
2018-02-18T12:46:36.144Z,37.00
2018-02-18T12:49:04.442Z,36.60
2018-02-18T12:51:31.979Z,37.00
2018-02-18T12:54:00.279Z,36.90
2018-02-18T12:56:27.800Z,36.70
2018-02-18T12:58:55.355Z,37.50
2018-02-18T13:01:22.905Z,37.30
2018-02-18T13:03:50.448Z,37.60
2018-02-18T13:06:17.990Z,37.20
2018-02-18T13:08:45.539Z,37.70
2018-02-18T13:11:13.055Z,37.20
2018-02-18T13:13:40.575Z,37.90
2018-02-18T13:16:08.113Z,37.60
2018-02-18T13:18:35.627Z,38.50
2018-02-18T13:21:03.179Z,37.50
2018-02-18T13:23:30.724Z,37.70
2018-02-18T13:25:58.255Z,37.30
2018-02-18T13:28:25.782Z,37.50
2018-02-18T13:30:53.309Z,37.20
2018-02-18T13:33:20.835Z,37.10
2018-02-18T13:35:48.435Z,37.70
2018-02-18T13:38:15.957Z,37.60
2018-02-18T13:40:43.503Z,38.10
2018-02-18T13:43:11.780Z,38.10
2018-02-18T13:45:40.064Z,37.80
2018-02-18T13:48:07.580Z,37.70
2018-02-18T13:50:35.095Z,38.60
2018-02-18T13:53:02.660Z,38.30
2018-02-18T13:55:30.180Z,38.60
2018-02-18T13:57:57.710Z,39.40
2018-02-18T14:00:25.231Z,39.20
2018-02-18T14:02:52.782Z,38.60
2018-02-18T14:05:21.074Z,38.10
2018-02-18T14:07:48.604Z,37.90
2018-02-18T14:10:16.147Z,38.40
2018-02-18T14:12:43.693Z,38.60
2018-02-18T14:15:11.220Z,38.60
2018-02-18T14:17:38.751Z,39.70
2018-02-18T14:20:06.268Z,39.80
2018-02-18T14:22:33.959Z,39.10
2018-02-18T14:25:01.484Z,39.20
2018-02-18T14:27:29.009Z,39.50
2018-02-18T14:29:57.501Z,39.90
2018-02-18T14:32:25.788Z,40.20
2018-02-18T14:34:53.307Z,40.20
2018-02-18T14:37:20.827Z,39.50
2018-02-18T14:39:48.352Z,39.90
2018-02-18T14:42:28.323Z,40.20
2018-02-18T14:45:07.644Z,40.30
2018-02-18T14:47:47.583Z,39.40
2018-02-18T14:50:27.668Z,40.20
2018-02-18T14:53:06.839Z,40.60
2018-02-18T14:55:46.020Z,39.00
2018-02-18T14:58:14.357Z,40.50
2018-02-18T15:00:41.892Z,40.50
2018-02-18T15:03:09.404Z,40.40
2018-02-18T15:05:37.707Z,40.20
2018-02-18T15:08:05.260Z,40.50
2018-02-18T15:10:32.820Z,40.10
2018-02-18T15:13:00.359Z,40.50
2018-02-18T15:15:28.655Z,40.60
2018-02-18T15:17:56.937Z,41.10
2018-02-18T15:20:24.474Z,40.50
2018-02-18T15:22:52.767Z,41.20
2018-02-18T15:25:21.095Z,41.00
2018-02-18T15:27:48.620Z,41.40
2018-02-18T15:30:16.897Z,42.10
2018-02-18T15:32:45.207Z,42.40
2018-02-18T15:35:12.736Z,42.20
2018-02-18T15:37:41.049Z,41.90
2018-02-18T15:40:08.598Z,41.90
2018-02-18T15:42:36.138Z,42.40
2018-02-18T15:45:04.446Z,42.50
2018-02-18T15:47:31.984Z,42.50
2018-02-18T15:49:59.522Z,43.30
2018-02-18T15:52:27.823Z,42.70
2018-02-18T15:54:55.343Z,42.50
2018-02-18T15:57:22.945Z,42.90
2018-02-18T15:59:50.499Z,42.40
2018-02-18T16:02:18.787Z,43.40
2018-02-18T16:04:46.300Z,43.50
2018-02-18T16:07:13.837Z,43.60
2018-02-18T16:09:41.358Z,44.50
2018-02-18T16:12:09.660Z,44.60
2018-02-18T16:14:37.172Z,44.70
2018-02-18T16:17:05.493Z,44.40
2018-02-18T16:19:33.038Z,44.40
2018-02-18T16:22:00.555Z,44.20
2018-02-18T16:24:28.091Z,44.10
2018-02-18T16:26:55.595Z,44.10
2018-02-18T16:29:23.900Z,44.60
2018-02-18T16:31:51.425Z,44.90
2018-02-18T16:34:18.952Z,44.60
2018-02-18T16:36:46.463Z,44.60
2018-02-18T16:39:14.755Z,45.10
2018-02-18T16:41:42.260Z,45.00
2018-02-18T16:44:09.949Z,45.30
2018-02-18T16:46:37.459Z,44.70
2018-02-18T16:49:05.035Z,45.30
2018-02-18T16:51:32.627Z,45.10
2018-02-18T16:54:00.177Z,43.50
2018-02-18T16:56:27.684Z,44.70
2018-02-18T16:58:55.195Z,45.00
2018-02-18T17:01:22.717Z,44.60
2018-02-18T17:03:50.224Z,43.90
2018-02-18T17:06:17.774Z,44.20
2018-02-18T17:08:45.298Z,44.80
2018-02-18T17:11:12.860Z,44.10
2018-02-18T17:13:40.370Z,44.60
2018-02-18T17:16:08.677Z,44.70
2018-02-18T17:18:36.200Z,44.90
2018-02-18T17:21:03.774Z,44.40
2018-02-18T17:23:32.059Z,44.70
2018-02-18T17:26:00.373Z,46.00
2018-02-18T17:28:27.888Z,44.90
2018-02-18T17:30:56.180Z,45.80
2018-02-18T17:33:24.456Z,45.90
2018-02-18T17:35:52.748Z,46.10
2018-02-18T17:38:20.267Z,45.10
2018-02-18T17:40:47.784Z,46.20
2018-02-18T17:43:15.288Z,45.90
2018-02-18T17:45:42.827Z,46.10
2018-02-18T17:48:10.331Z,46.10
2018-02-18T17:50:38.599Z,46.00
2018-02-18T17:53:06.891Z,45.80
2018-02-18T17:55:35.163Z,45.90
2018-02-18T17:58:03.504Z,45.90
2018-02-18T18:03:04.804Z,46.40
2018-02-18T18:05:33.072Z,46.40
2018-02-18T18:08:00.591Z,46.60
2018-02-18T18:10:28.108Z,46.50
2018-02-18T18:12:56.404Z,46.80
